DAL1244 KPDX-KSLC
Flight info
| Callsign | DAL1244 |
|---|---|
| Flight time | N/A |
| Altitude | 37000 |
| Route | WHAMY5 IMB J15 BOI BYI SKEES6 |
| Aircraft | A321/M-SDE3FGHIRWY/LB1 |
Departure
| Time | 2026-04-30 10:20 |
|---|---|
| Airport | Portland International Airport (KPDX) |
Arrival
| Time | N/A |
|---|---|
| Airport | Salt Lake City International Airport (KSLC) |
| Time | Latitude | Longitude | Altitude | Speed | Heading |
|---|---|---|---|---|---|
| 2026-04-30 10:00 | 45.58958 | -122.58962 | 31 ft | 0 kts | 225° |
| 2026-04-30 10:09 | 45.58964 | -122.58954 | 31 ft | 2 kts | 225° |
| 2026-04-30 10:09 | 45.58975 | -122.58937 | 30 ft | 2 kts | 216° |
| 2026-04-30 10:09 | 45.58989 | -122.58925 | 31 ft | 2 kts | 201° |
| 2026-04-30 10:09 | 45.59005 | -122.58919 | 31 ft | 2 kts | 174° |
| 2026-04-30 10:10 | 45.59020 | -122.58925 | 30 ft | 2 kts | 141° |
| 2026-04-30 10:10 | 45.59031 | -122.58940 | 31 ft | 0 kts | 122° |
| 2026-04-30 10:11 | 45.59031 | -122.58939 | 31 ft | 1 kts | 122° |
| 2026-04-30 10:12 | 45.59018 | -122.58906 | 31 ft | 5 kts | 117° |
| 2026-04-30 10:12 | 45.58986 | -122.58828 | 31 ft | 12 kts | 119° |
| 2026-04-30 10:12 | 45.58939 | -122.58696 | 30 ft | 15 kts | 97° |
| 2026-04-30 10:12 | 45.58956 | -122.58607 | 30 ft | 7 kts | 73° |
| 2026-04-30 10:13 | 45.58954 | -122.58537 | 31 ft | 9 kts | 107° |
| 2026-04-30 10:13 | 45.58912 | -122.58426 | 31 ft | 16 kts | 121° |
| 2026-04-30 10:13 | 45.58842 | -122.58273 | 31 ft | 21 kts | 128° |
| 2026-04-30 10:13 | 45.58781 | -122.58097 | 30 ft | 19 kts | 117° |
| 2026-04-30 10:14 | 45.58723 | -122.57945 | 30 ft | 16 kts | 119° |
| 2026-04-30 10:14 | 45.58674 | -122.57816 | 31 ft | 14 kts | 118° |
| 2026-04-30 10:14 | 45.58596 | -122.57619 | 32 ft | 9 kts | 120° |
| 2026-04-30 10:15 | 45.58564 | -122.57537 | 30 ft | 11 kts | 117° |
| 2026-04-30 10:15 | 45.58523 | -122.57422 | 29 ft | 13 kts | 117° |
| 2026-04-30 10:15 | 45.58480 | -122.57305 | 30 ft | 13 kts | 117° |
| 2026-04-30 10:15 | 45.58437 | -122.57196 | 31 ft | 12 kts | 122° |
| 2026-04-30 10:16 | 45.58392 | -122.57092 | 31 ft | 12 kts | 121° |
| 2026-04-30 10:16 | 45.58352 | -122.56992 | 31 ft | 11 kts | 120° |
| 2026-04-30 10:16 | 45.58314 | -122.56898 | 32 ft | 11 kts | 120° |
| 2026-04-30 10:17 | 45.58285 | -122.56719 | 30 ft | 9 kts | 49° |
| 2026-04-30 10:17 | 45.58368 | -122.56709 | 31 ft | 0 kts | 303° |
| 2026-04-30 10:19 | 45.58384 | -122.56745 | 31 ft | 18 kts | 302° |
| 2026-04-30 10:20 | 45.58579 | -122.57248 | 30 ft | 95 kts | 299° |
| 2026-04-30 10:20 | 45.59589 | -122.59789 | 255 ft | 177 kts | 299° |
| 2026-04-30 10:20 | 45.60171 | -122.61356 | 879 ft | 182 kts | 297° |
| 2026-04-30 10:21 | 45.60774 | -122.63062 | 1226 ft | 203 kts | 298° |
| 2026-04-30 10:21 | 45.61402 | -122.65003 | 1485 ft | 230 kts | 288° |
| 2026-04-30 10:21 | 45.61818 | -122.67337 | 1896 ft | 254 kts | 292° |
| 2026-04-30 10:21 | 45.62660 | -122.69620 | 2570 ft | 265 kts | 302° |
| 2026-04-30 10:22 | 45.63616 | -122.71920 | 3391 ft | 273 kts | 302° |
| 2026-04-30 10:22 | 45.64594 | -122.74282 | 4208 ft | 279 kts | 301° |
| 2026-04-30 10:22 | 45.65584 | -122.76701 | 5049 ft | 285 kts | 301° |
| 2026-04-30 10:22 | 45.66494 | -122.79243 | 5884 ft | 289 kts | 289° |
| 2026-04-30 10:23 | 45.66882 | -122.82057 | 6731 ft | 290 kts | 270° |
| 2026-04-30 10:23 | 45.66663 | -122.84910 | 7572 ft | 289 kts | 252° |
| 2026-04-30 10:23 | 45.66268 | -122.86777 | 8146 ft | 290 kts | 251° |